Time,TemperatureF,DewpointF,PressureIn,WindDirection,WindDirectionDegrees,WindSpeedMPH,WindSpeedGustMPH,Humidity,HourlyPrecipIn,Conditions,Clouds,dailyrainin,SoftwareType,DateUTC
2013-02-14 00:00:00,32.4,18.8,29.70,WNW,294,0.0,1.0,57,0.00,,,0.00,Wunderground v.1.15,2013-02-14 05:00:00,
2013-02-14 00:10:00,32.2,19.5,29.69,WNW,296,2.0,2.0,59,0.00,,,0.00,Wunderground v.1.15,2013-02-14 05:10:00,
2013-02-14 00:20:00,32.1,19.4,29.69,WNW,296,1.0,1.0,59,0.00,,,0.00,Wunderground v.1.15,2013-02-14 05:20:00,
2013-02-14 00:30:00,32.1,19.4,29.69,North,358,3.0,3.0,59,0.00,,,0.00,Wunderground v.1.15,2013-02-14 05:30:00,
2013-02-14 00:40:00,31.9,20.0,29.68,North,358,3.0,3.0,61,0.00,,,0.00,Wunderground v.1.15,2013-02-14 05:40:00,
2013-02-14 00:50:00,31.8,19.9,29.67,North,357,3.0,3.0,61,0.00,,,0.00,Wunderground v.1.15,2013-02-14 05:50:00,
2013-02-14 01:00:00,31.8,20.3,29.67,North,4,3.0,3.0,62,0.00,,,0.00,Wunderground v.1.15,2013-02-14 06:00:00,
2013-02-14 01:10:00,31.6,20.4,29.67,North,2,3.0,4.0,63,0.00,,,0.00,Wunderground v.1.15,2013-02-14 06:10:00,
2013-02-14 01:20:00,31.3,20.2,29.66,North,352,3.0,4.0,63,0.00,,,0.00,Wunderground v.1.15,2013-02-14 06:20:00,
2013-02-14 01:30:00,31.2,20.4,29.66,North,8,5.0,5.0,64,0.00,,,0.00,Wunderground v.1.15,2013-02-14 06:30:00,
2013-02-14 01:40:00,31.0,20.6,29.66,North,0,4.0,5.0,65,0.00,,,0.00,Wunderground v.1.15,2013-02-14 06:40:00,
2013-02-14 01:50:00,30.9,20.5,29.68,North,355,3.0,3.0,65,0.00,,,0.00,Wunderground v.1.15,2013-02-14 06:50:00,
2013-02-14 02:00:00,30.9,20.9,29.68,East,98,2.0,3.0,66,0.00,,,0.00,Wunderground v.1.15,2013-02-14 07:00:00,
2013-02-14 02:10:00,30.6,20.9,29.71,East,97,1.0,1.0,67,0.00,,,0.00,Wunderground v.1.15,2013-02-14 07:10:00,
2013-02-14 02:20:00,30.6,20.6,29.72,ENE,59,1.0,1.0,66,0.00,,,0.00,Wunderground v.1.15,2013-02-14 07:20:00,
2013-02-14 02:30:00,30.6,20.9,29.72,ENE,59,0.0,0.0,67,0.00,,,0.00,Wunderground v.1.15,2013-02-14 07:30:00,
2013-02-14 02:40:00,30.4,20.7,29.72,North,8,1.0,2.0,67,0.00,,,0.00,Wunderground v.1.15,2013-02-14 07:40:00,
2013-02-14 02:50:00,30.4,21.1,29.71,North,0,3.0,3.0,68,0.00,,,0.00,Wunderground v.1.15,2013-02-14 07:50:00,
2013-02-14 03:00:00,30.3,21.0,29.71,North,0,3.0,3.0,68,0.00,,,0.00,Wunderground v.1.15,2013-02-14 08:00:00,
2013-02-14 03:10:00,30.1,20.8,29.71,North,11,3.0,3.0,68,0.00,,,0.00,Wunderground v.1.15,2013-02-14 08:10:00,
2013-02-14 03:20:00,30.1,20.8,29.70,NNE,28,3.0,4.0,68,0.00,,,0.00,Wunderground v.1.15,2013-02-14 08:20:00,
2013-02-14 03:30:00,30.0,20.7,29.70,North,10,3.0,3.0,68,0.00,,,0.00,Wunderground v.1.15,2013-02-14 08:30:00,
2013-02-14 03:40:00,29.8,20.5,29.71,North,5,2.0,2.0,68,0.00,,,0.00,Wunderground v.1.15,2013-02-14 08:40:00,
2013-02-14 03:50:00,29.8,20.5,29.71,North,0,4.0,5.0,68,0.00,,,0.00,Wunderground v.1.15,2013-02-14 08:50:00,
2013-02-14 04:00:00,29.7,20.4,29.71,North,6,3.0,3.0,68,0.00,,,0.00,Wunderground v.1.15,2013-02-14 09:00:00,
2013-02-14 04:10:00,29.5,20.2,29.71,North,0,4.0,4.0,68,0.00,,,0.00,Wunderground v.1.15,2013-02-14 09:10:00,
2013-02-14 04:20:00,29.5,20.2,29.72,North,0,4.0,4.0,68,0.00,,,0.00,Wunderground v.1.15,2013-02-14 09:20:00,
2013-02-14 04:30:00,29.5,20.2,29.72,North,6,5.0,5.0,68,0.00,,,0.00,Wunderground v.1.15,2013-02-14 09:30:00,
2013-02-14 04:40:00,29.5,20.2,29.72,North,0,5.0,5.0,68,0.00,,,0.00,Wunderground v.1.15,2013-02-14 09:40:00,
2013-02-14 04:50:00,29.4,20.1,29.72,North,358,4.0,5.0,68,0.00,,,0.00,Wunderground v.1.15,2013-02-14 09:50:00,
2013-02-14 05:00:00,29.3,20.0,29.72,NNW,337,3.0,6.0,68,0.00,,,0.00,Wunderground v.1.15,2013-02-14 10:00:00,
2013-02-14 05:10:00,29.1,20.2,29.72,NNW,347,4.0,4.0,69,0.00,,,0.00,Wunderground v.1.15,2013-02-14 10:10:00,
2013-02-14 05:20:00,29.1,20.2,29.72,North,355,3.0,4.0,69,0.00,,,0.00,Wunderground v.1.15,2013-02-14 10:20:00,
2013-02-14 05:30:00,29.0,20.1,29.72,NNW,335,3.0,3.0,69,0.00,,,0.00,Wunderground v.1.15,2013-02-14 10:30:00,
2013-02-14 05:40:00,29.0,20.1,29.73,North,355,3.0,5.0,69,0.00,,,0.00,Wunderground v.1.15,2013-02-14 10:40:00,
2013-02-14 05:50:00,28.8,19.9,29.73,North,354,3.0,4.0,69,0.00,,,0.00,Wunderground v.1.15,2013-02-14 10:50:00,
2013-02-14 06:00:00,28.5,19.6,29.73,North,358,2.0,2.0,69,0.00,,,0.00,Wunderground v.1.15,2013-02-14 11:00:00,
2013-02-14 06:10:00,28.4,19.9,29.74,North,358,1.0,2.0,70,0.00,,,0.00,Wunderground v.1.15,2013-02-14 11:10:00,
2013-02-14 06:20:00,28.1,19.6,29.74,North,358,1.0,1.0,70,0.00,,,0.00,Wunderground v.1.15,2013-02-14 11:20:00,
2013-02-14 06:30:00,27.8,19.6,29.74,North,358,0.0,2.0,71,0.00,,,0.00,Wunderground v.1.15,2013-02-14 11:30:00,
2013-02-14 06:40:00,27.5,19.7,29.74,North,358,0.0,0.0,72,0.00,,,0.00,Wunderground v.1.15,2013-02-14 11:40:00,
2013-02-14 06:50:00,27.3,19.5,29.74,North,358,0.0,0.0,72,0.00,,,0.00,Wunderground v.1.15,2013-02-14 11:50:00,
2013-02-14 07:00:00,27.3,19.5,29.74,North,358,1.0,1.0,72,0.00,,,0.00,Wunderground v.1.15,2013-02-14 12:00:00,
2013-02-14 07:10:00,27.2,19.4,29.75,North,356,1.0,2.0,72,0.00,,,0.00,Wunderground v.1.15,2013-02-14 12:10:00,
2013-02-14 07:20:00,27.2,19.4,29.76,North,352,3.0,3.0,72,0.00,,,0.00,Wunderground v.1.15,2013-02-14 12:20:00,
2013-02-14 07:30:00,27.6,19.4,29.76,North,356,4.0,4.0,71,0.00,,,0.00,Wunderground v.1.15,2013-02-14 12:30:00,
2013-02-14 07:40:00,28.1,19.9,29.76,NW,316,3.0,4.0,71,0.00,,,0.00,Wunderground v.1.15,2013-02-14 12:40:00,
2013-02-14 07:50:00,28.4,19.9,29.77,NNW,345,5.0,5.0,70,0.00,,,0.00,Wunderground v.1.15,2013-02-14 12:50:00,
2013-02-14 08:00:00,29.0,20.1,29.77,North,358,5.0,7.0,69,0.00,,,0.00,Wunderground v.1.15,2013-02-14 13:00:00,
2013-02-14 08:10:00,29.3,20.0,29.77,NNW,328,4.0,4.0,68,0.00,,,0.00,Wunderground v.1.15,2013-02-14 13:10:00,
2013-02-14 08:20:00,29.4,20.1,29.78,NW,326,3.0,3.0,68,0.00,,,0.00,Wunderground v.1.15,2013-02-14 13:20:00,
2013-02-14 08:30:00,29.7,20.4,29.78,NW,319,3.0,4.0,68,0.00,,,0.00,Wunderground v.1.15,2013-02-14 13:30:00,
2013-02-14 08:40:00,30.1,20.8,29.78,WNW,297,5.0,5.0,68,0.00,,,0.00,Wunderground v.1.15,2013-02-14 13:40:00,
2013-02-14 08:50:00,29.7,20.4,29.78,North,358,6.0,6.0,68,0.00,,,0.00,Wunderground v.1.15,2013-02-14 13:50:00,
2013-02-14 09:00:00,30.6,20.2,29.78,NW,311,6.0,9.0,65,0.00,,,0.00,Wunderground v.1.15,2013-02-14 14:00:00,
2013-02-14 09:10:00,30.7,20.0,29.77,North,353,7.0,7.0,64,0.00,,,0.00,Wunderground v.1.15,2013-02-14 14:10:00,
2013-02-14 09:20:00,31.2,20.1,29.77,WNW,299,6.0,6.0,63,0.00,,,0.00,Wunderground v.1.15,2013-02-14 14:20:00,
2013-02-14 09:30:00,31.8,19.5,29.77,NNW,335,5.0,9.0,60,0.00,,,0.00,Wunderground v.1.15,2013-02-14 14:30:00,
2013-02-14 09:40:00,32.2,19.1,29.78,North,350,6.0,6.0,58,0.00,,,0.00,Wunderground v.1.15,2013-02-14 14:40:00,
2013-02-14 09:50:00,32.7,18.7,29.77,NNW,341,5.0,5.0,56,0.00,,,0.00,Wunderground v.1.15,2013-02-14 14:50:00,
2013-02-14 10:00:00,33.1,17.8,29.77,NW,313,5.0,6.0,53,0.00,,,0.00,Wunderground v.1.15,2013-02-14 15:00:00,
2013-02-14 10:10:00,32.7,16.5,29.78,NNW,342,7.0,7.0,51,0.00,,,0.00,Wunderground v.1.15,2013-02-14 15:10:00,
2013-02-14 10:20:00,33.5,16.8,29.79,North,354,6.0,7.0,50,0.00,,,0.00,Wunderground v.1.15,2013-02-14 15:20:00,
2013-02-14 10:30:00,33.7,17.0,29.79,WNW,286,8.0,8.0,50,0.00,,,0.00,Wunderground v.1.15,2013-02-14 15:30:00,
2013-02-14 10:40:00,33.7,16.5,29.79,NW,314,7.0,7.0,49,0.00,,,0.00,Wunderground v.1.15,2013-02-14 15:40:00,
2013-02-14 10:50:00,33.5,16.8,29.80,NW,319,6.0,6.0,50,0.00,,,0.00,Wunderground v.1.15,2013-02-14 15:50:00,
2013-02-14 11:00:00,33.8,16.6,29.80,WNW,290,7.0,7.0,49,0.00,,,0.00,Wunderground v.1.15,2013-02-14 16:00:00,
2013-02-14 11:10:00,34.0,16.3,29.80,West,259,6.0,13.0,48,0.00,,,0.00,Wunderground v.1.15,2013-02-14 16:10:00,
2013-02-14 11:20:00,34.3,16.1,29.80,WNW,298,7.0,11.0,47,0.00,,,0.00,Wunderground v.1.15,2013-02-14 16:20:00,
2013-02-14 11:30:00,34.4,15.7,29.80,NW,317,8.0,8.0,46,0.00,,,0.00,Wunderground v.1.15,2013-02-14 16:30:00,
2013-02-14 11:40:00,34.9,16.2,29.80,WNW,288,8.0,8.0,46,0.00,,,0.00,Wunderground v.1.15,2013-02-14 16:40:00,
2013-02-14 11:50:00,35.3,16.0,29.79,NNW,334,6.0,6.0,45,0.00,,,0.00,Wunderground v.1.15,2013-02-14 16:50:00,
2013-02-14 12:00:00,35.2,16.0,29.79,NNW,341,6.0,11.0,45,0.00,,,0.00,Wunderground v.1.15,2013-02-14 17:00:00,
2013-02-14 12:10:00,35.3,15.5,29.80,NW,320,6.0,6.0,44,0.00,,,0.00,Wunderground v.1.15,2013-02-14 17:10:00,
2013-02-14 12:20:00,35.9,16.1,29.80,West,281,5.0,7.0,44,0.00,,,0.00,Wunderground v.1.15,2013-02-14 17:20:00,
2013-02-14 12:30:00,36.3,15.9,29.80,NW,311,5.0,5.0,43,0.00,,,0.00,Wunderground v.1.15,2013-02-14 17:30:00,
2013-02-14 12:40:00,36.3,17.0,29.80,WNW,288,6.0,6.0,45,0.00,,,0.00,Wunderground v.1.15,2013-02-14 17:40:00,
2013-02-14 12:50:00,35.9,15.5,29.80,WNW,288,8.0,8.0,43,0.00,,,0.00,Wunderground v.1.15,2013-02-14 17:50:00,
2013-02-14 13:00:00,36.6,15.6,29.80,NW,324,5.0,6.0,42,0.00,,,0.00,Wunderground v.1.15,2013-02-14 18:00:00,
2013-02-14 13:10:00,36.9,15.4,29.80,WNW,291,4.0,4.0,41,0.00,,,0.00,Wunderground v.1.15,2013-02-14 18:10:00,
2013-02-14 13:20:00,36.8,15.8,29.80,NW,314,4.0,4.0,42,0.00,,,0.00,Wunderground v.1.15,2013-02-14 18:20:00,
2013-02-14 13:30:00,36.8,15.8,29.80,WNW,300,6.0,6.0,42,0.00,,,0.00,Wunderground v.1.15,2013-02-14 18:30:00,
2013-02-14 13:40:00,36.6,15.1,29.80,West,259,6.0,13.0,41,0.00,,,0.00,Wunderground v.1.15,2013-02-14 18:40:00,
2013-02-14 13:50:00,37.0,15.5,29.80,West,270,6.0,6.0,41,0.00,,,0.00,Wunderground v.1.15,2013-02-14 18:50:00,
2013-02-14 14:00:00,36.8,14.7,29.80,WNW,285,5.0,5.0,40,0.00,,,0.00,Wunderground v.1.15,2013-02-14 19:00:00,
2013-02-14 14:10:00,37.0,16.0,29.81,West,276,7.0,11.0,42,0.00,,,0.00,Wunderground v.1.15,2013-02-14 19:10:00,
2013-02-14 14:20:00,36.9,15.4,29.82,WNW,283,6.0,6.0,41,0.00,,,0.00,Wunderground v.1.15,2013-02-14 19:20:00,
2013-02-14 14:30:00,37.2,15.1,29.82,West,276,6.0,6.0,40,0.00,,,0.00,Wunderground v.1.15,2013-02-14 19:30:00,
2013-02-14 14:40:00,37.3,15.7,29.82,West,281,6.0,6.0,41,0.00,,,0.00,Wunderground v.1.15,2013-02-14 19:40:00,
2013-02-14 14:50:00,37.5,15.3,29.82,West,274,5.0,8.0,40,0.00,,,0.00,Wunderground v.1.15,2013-02-14 19:50:00,
2013-02-14 15:00:00,37.6,15.4,29.82,West,272,5.0,7.0,40,0.00,,,0.00,Wunderground v.1.15,2013-02-14 20:00:00,
2013-02-14 15:10:00,37.3,15.2,29.83,West,279,5.0,8.0,40,0.00,,,0.00,Wunderground v.1.15,2013-02-14 20:10:00,
2013-02-14 15:20:00,37.0,15.5,29.83,WSW,251,7.0,7.0,41,0.00,,,0.00,Wunderground v.1.15,2013-02-14 20:20:00,
2013-02-14 15:30:00,36.9,15.4,29.83,WNW,302,6.0,6.0,41,0.00,,,0.00,Wunderground v.1.15,2013-02-14 20:30:00,
2013-02-14 15:40:00,36.8,14.7,29.84,WSW,250,6.0,6.0,40,0.00,,,0.00,Wunderground v.1.15,2013-02-14 20:40:00,
2013-02-14 15:50:00,36.6,15.6,29.84,West,278,7.0,8.0,42,0.00,,,0.00,Wunderground v.1.15,2013-02-14 20:50:00,
2013-02-14 16:00:00,36.3,15.9,29.84,West,277,8.0,8.0,43,0.00,,,0.00,Wunderground v.1.15,2013-02-14 21:00:00,
2013-02-14 16:10:00,36.0,15.6,29.85,West,267,7.0,7.0,43,0.00,,,0.00,Wunderground v.1.15,2013-02-14 21:10:00,
2013-02-14 16:20:00,35.8,15.5,29.85,West,266,6.0,10.0,43,0.00,,,0.00,Wunderground v.1.15,2013-02-14 21:20:00,
2013-02-14 16:30:00,35.3,15.5,29.85,West,270,5.0,5.0,44,0.00,,,0.00,Wunderground v.1.15,2013-02-14 21:30:00,
2013-02-14 16:40:00,34.9,15.7,29.86,WNW,288,6.0,8.0,45,0.00,,,0.00,Wunderground v.1.15,2013-02-14 21:40:00,
2013-02-14 16:50:00,34.6,15.9,29.87,West,279,5.0,5.0,46,0.00,,,0.00,Wunderground v.1.15,2013-02-14 21:50:00,
2013-02-14 17:00:00,34.1,15.9,29.87,West,268,4.0,4.0,47,0.00,,,0.00,Wunderground v.1.15,2013-02-14 22:00:00,
2013-02-14 17:10:00,33.5,15.9,29.88,West,268,3.0,3.0,48,0.00,,,0.00,Wunderground v.1.15,2013-02-14 22:10:00,
2013-02-14 17:20:00,32.8,16.2,29.89,WSW,257,3.0,4.0,50,0.00,,,0.00,Wunderground v.1.15,2013-02-14 22:20:00,
2013-02-14 17:30:00,32.4,16.3,29.89,WSW,257,4.0,4.0,51,0.00,,,0.00,Wunderground v.1.15,2013-02-14 22:30:00,
2013-02-14 17:40:00,32.1,16.0,29.90,WSW,257,3.0,4.0,51,0.00,,,0.00,Wunderground v.1.15,2013-02-14 22:40:00,
2013-02-14 17:50:00,31.8,15.7,29.91,WSW,258,3.0,3.0,51,0.00,,,0.00,Wunderground v.1.15,2013-02-14 22:50:00,
2013-02-14 18:00:00,31.5,15.9,29.91,WSW,258,3.0,3.0,52,0.00,,,0.00,Wunderground v.1.15,2013-02-14 23:00:00,
2013-02-14 18:10:00,31.2,16.0,29.91,WSW,258,3.0,3.0,53,0.00,,,0.00,Wunderground v.1.15,2013-02-14 23:10:00,
2013-02-14 18:20:00,30.7,16.0,29.91,WSW,258,3.0,3.0,54,0.00,,,0.00,Wunderground v.1.15,2013-02-14 23:20:00,
2013-02-14 18:30:00,30.4,16.1,29.91,WSW,258,3.0,3.0,55,0.00,,,0.00,Wunderground v.1.15,2013-02-14 23:30:00,
2013-02-14 18:40:00,30.0,16.2,29.92,WSW,258,3.0,3.0,56,0.00,,,0.00,Wunderground v.1.15,2013-02-14 23:40:00,
2013-02-14 18:50:00,30.3,16.0,29.93,WSW,258,3.0,3.0,55,0.00,,,0.00,Wunderground v.1.15,2013-02-14 23:50:00,
2013-02-14 19:00:00,30.6,15.9,29.93,WSW,258,3.0,3.0,54,0.00,,,0.00,Wunderground v.1.15,2013-02-15 00:00:00,
2013-02-14 19:10:00,30.7,16.0,29.93,WSW,258,2.0,2.0,54,0.00,,,0.00,Wunderground v.1.15,2013-02-15 00:10:00,
2013-02-14 19:20:00,30.4,16.1,29.93,WSW,258,3.0,3.0,55,0.00,,,0.00,Wunderground v.1.15,2013-02-15 00:20:00,
2013-02-14 19:30:00,29.5,15.7,29.93,WSW,258,2.0,2.0,56,0.00,,,0.00,Wunderground v.1.15,2013-02-15 00:30:00,
2013-02-14 19:40:00,29.1,15.7,29.94,WSW,258,2.0,2.0,57,0.00,,,0.00,Wunderground v.1.15,2013-02-15 00:40:00,
2013-02-14 19:50:00,29.8,15.6,29.93,WSW,258,2.0,3.0,55,0.00,,,0.00,Wunderground v.1.15,2013-02-15 00:50:00,
2013-02-14 20:00:00,29.7,15.9,29.93,WSW,258,2.0,2.0,56,0.00,,,0.00,Wunderground v.1.15,2013-02-15 01:00:00,
2013-02-14 20:10:00,29.4,16.0,29.94,WSW,258,1.0,1.0,57,0.00,,,0.00,Wunderground v.1.15,2013-02-15 01:10:00,
2013-02-14 20:20:00,27.8,15.7,29.94,WSW,258,1.0,1.0,60,0.00,,,0.00,Wunderground v.1.15,2013-02-15 01:20:00,
2013-02-14 20:30:00,26.9,16.3,29.94,WSW,258,0.0,0.0,64,0.00,,,0.00,Wunderground v.1.15,2013-02-15 01:30:00,
2013-02-14 20:40:00,26.7,16.1,29.94,WSW,258,0.0,0.0,64,0.00,,,0.00,Wunderground v.1.15,2013-02-15 01:40:00,
2013-02-14 20:50:00,26.1,15.9,29.95,WSW,258,0.0,0.0,65,0.00,,,0.00,Wunderground v.1.15,2013-02-15 01:50:00,
2013-02-14 21:00:00,25.8,16.0,29.95,WSW,258,0.0,0.0,66,0.00,,,0.00,Wunderground v.1.15,2013-02-15 02:00:00,
2013-02-14 21:10:00,25.3,15.9,29.94,WSW,258,0.0,0.0,67,0.00,,,0.00,Wunderground v.1.15,2013-02-15 02:10:00,
2013-02-14 21:20:00,25.8,16.0,29.94,WSW,258,0.0,0.0,66,0.00,,,0.00,Wunderground v.1.15,2013-02-15 02:20:00,
2013-02-14 21:30:00,25.1,16.0,29.94,WSW,258,0.0,0.0,68,0.00,,,0.00,Wunderground v.1.15,2013-02-15 02:30:00,
2013-02-14 21:40:00,25.3,16.2,29.94,WSW,258,0.0,0.0,68,0.00,,,0.00,Wunderground v.1.15,2013-02-15 02:40:00,
2013-02-14 21:50:00,25.8,16.0,29.94,WSW,258,0.0,2.0,66,0.00,,,0.00,Wunderground v.1.15,2013-02-15 02:50:00,
2013-02-14 22:00:00,25.1,16.0,29.94,WSW,258,1.0,2.0,68,0.00,,,0.00,Wunderground v.1.15,2013-02-15 03:00:00,
2013-02-14 22:10:00,25.1,16.4,29.94,WSW,258,1.0,1.0,69,0.00,,,0.00,Wunderground v.1.15,2013-02-15 03:10:00,
2013-02-14 22:20:00,25.6,16.2,29.94,WSW,258,0.0,0.0,67,0.00,,,0.00,Wunderground v.1.15,2013-02-15 03:20:00,
2013-02-14 22:30:00,24.5,16.1,29.94,WSW,258,0.0,0.0,70,0.00,,,0.00,Wunderground v.1.15,2013-02-15 03:30:00,
2013-02-14 22:40:00,25.0,16.6,29.94,WSW,258,0.0,0.0,70,0.00,,,0.00,Wunderground v.1.15,2013-02-15 03:40:00,
2013-02-14 22:50:00,25.4,16.6,29.94,WSW,258,2.0,2.0,69,0.00,,,0.00,Wunderground v.1.15,2013-02-15 03:50:00,
2013-02-14 23:00:00,25.6,16.5,29.94,WSW,258,0.0,0.0,68,0.00,,,0.00,Wunderground v.1.15,2013-02-15 04:00:00,
2013-02-14 23:10:00,25.3,16.2,29.94,WSW,258,0.0,2.0,68,0.00,,,0.00,Wunderground v.1.15,2013-02-15 04:10:00,
2013-02-14 23:20:00,24.8,16.4,29.94,WSW,258,0.0,0.0,70,0.00,,,0.00,Wunderground v.1.15,2013-02-15 04:20:00,
2013-02-14 23:30:00,24.7,16.3,29.94,WSW,258,0.0,2.0,70,0.00,,,0.00,Wunderground v.1.15,2013-02-15 04:30:00,
2013-02-14 23:40:00,24.7,16.6,29.95,WSW,258,1.0,1.0,71,0.00,,,0.00,Wunderground v.1.15,2013-02-15 04:40:00,
2013-02-14 23:50:00,25.0,16.6,29.95,WSW,258,0.0,0.0,70,0.00,,,0.00,Wunderground v.1.15,2013-02-15 04:50:00,